createdAt,value
2023-01-28T00:02:06.062Z,11.00
2023-01-28T00:04:34.285Z,10.20
2023-01-28T00:07:02.689Z,10.50
2023-01-28T00:09:30.790Z,10.60
2023-01-28T00:11:59.122Z,11.00
2023-01-28T00:14:27.267Z,12.80
2023-01-28T00:16:55.345Z,14.00
2023-01-28T00:19:24.057Z,10.90
2023-01-28T00:21:52.153Z,10.40
2023-01-28T00:24:20.384Z,9.70
2023-01-28T00:26:48.861Z,10.10
2023-01-28T00:29:17.100Z,11.30
2023-01-28T00:31:45.455Z,11.10
2023-01-28T00:34:13.528Z,11.50
2023-01-28T00:36:42.243Z,10.30
2023-01-28T00:39:14.805Z,8.90
2023-01-28T00:44:11.655Z,9.00
2023-01-28T00:46:41.896Z,9.00
2023-01-28T00:49:10.297Z,8.50
2023-01-28T00:51:38.836Z,8.20
2023-01-28T00:54:07.132Z,6.90
2023-01-28T00:56:36.952Z,7.10
2023-01-28T00:59:06.936Z,7.90
2023-01-28T01:01:35.396Z,6.90
2023-01-28T01:06:26.628Z,6.00
2023-01-28T01:08:54.756Z,6.30
2023-01-28T01:11:24.844Z,6.60
2023-01-28T01:14:00.918Z,7.50
2023-01-28T01:16:33.330Z,8.50
2023-01-28T01:19:02.137Z,8.90
2023-01-28T01:21:31.568Z,8.30
2023-01-28T01:23:59.779Z,7.20
2023-01-28T01:26:28.203Z,7.40
2023-01-28T01:28:58.758Z,7.70
2023-01-28T01:31:27.040Z,7.00
2023-01-28T01:33:55.225Z,6.80
2023-01-28T01:36:23.844Z,7.80
2023-01-28T01:38:55.860Z,5.60
2023-01-28T01:41:33.169Z,5.10
2023-01-28T01:44:04.021Z,5.50
2023-01-28T01:46:49.982Z,4.50
2023-01-28T01:49:28.292Z,5.30
2023-01-28T01:52:13.439Z,4.70
2023-01-28T01:54:47.050Z,4.50
2023-01-28T01:57:22.701Z,6.20
2023-01-28T01:59:51.062Z,6.00
2023-01-28T02:02:19.638Z,5.00
2023-01-28T02:04:47.739Z,5.50
2023-01-28T02:07:19.557Z,6.30
2023-01-28T02:09:47.752Z,6.80
2023-01-28T02:12:26.815Z,6.10
2023-01-28T02:15:15.103Z,5.70
2023-01-28T02:17:44.265Z,5.70
2023-01-28T02:20:26.858Z,6.00
2023-01-28T02:23:14.965Z,5.50
2023-01-28T02:26:35.246Z,6.00
2023-01-28T02:29:31.950Z,6.00
2023-01-28T02:32:39.140Z,6.40
2023-01-28T02:35:37.049Z,6.20
2023-01-28T02:38:16.879Z,6.10
2023-01-28T02:41:02.883Z,6.80
2023-01-28T02:43:34.211Z,6.60
2023-01-28T02:46:46.018Z,6.40
2023-01-28T02:49:24.374Z,6.70
2023-01-28T02:52:55.884Z,9.60
2023-01-28T02:55:55.316Z,7.70
2023-01-28T02:58:44.901Z,8.50
2023-01-28T03:01:33.267Z,8.70
2023-01-28T03:04:23.258Z,6.20
2023-01-28T03:06:58.983Z,7.70
2023-01-28T03:09:27.562Z,8.30
2023-01-28T03:12:24.929Z,8.50
2023-01-28T03:15:21.708Z,8.50
2023-01-28T03:18:44.359Z,8.10
2023-01-28T03:21:43.916Z,8.60
2023-01-28T03:24:39.336Z,8.00
2023-01-28T03:28:23.991Z,9.50
2023-01-28T03:31:23.393Z,7.10
2023-01-28T03:34:14.132Z,6.60
2023-01-28T03:36:55.615Z,7.40
2023-01-28T03:39:42.120Z,8.00
2023-01-28T03:42:14.389Z,7.20
2023-01-28T03:45:25.908Z,7.00
2023-01-28T03:47:54.852Z,10.70
2023-01-28T03:50:23.106Z,30.90
2023-01-28T03:55:51.418Z,20.60
2023-01-28T03:58:21.069Z,14.20
2023-01-28T04:00:49.163Z,14.00
2023-01-28T04:03:21.105Z,11.10
2023-01-28T04:06:05.748Z,7.80
2023-01-28T04:08:59.182Z,7.80
2023-01-28T04:11:51.097Z,8.00
2023-01-28T04:14:25.397Z,7.50
2023-01-28T04:17:05.706Z,38.00
2023-01-28T04:19:37.333Z,46.10
2023-01-28T04:22:10.548Z,24.60
2023-01-28T04:24:39.149Z,17.20
2023-01-28T04:27:07.289Z,12.30
2023-01-28T04:29:35.410Z,12.40
2023-01-28T04:32:23.565Z,9.40
2023-01-28T04:35:50.135Z,9.80
2023-01-28T04:39:07.982Z,7.20
2023-01-28T04:41:38.922Z,7.60
2023-01-28T04:44:17.184Z,9.00
2023-01-28T04:47:38.307Z,8.20
2023-01-28T04:50:25.299Z,9.20
2023-01-28T04:56:35.630Z,8.00
2023-01-28T04:59:05.210Z,9.20
2023-01-28T05:01:34.486Z,10.10
2023-01-28T05:04:05.678Z,10.10
2023-01-28T05:06:36.022Z,10.20
2023-01-28T05:09:10.125Z,10.00
2023-01-28T05:11:39.315Z,9.00
2023-01-28T05:14:08.707Z,9.30
2023-01-28T05:16:43.019Z,10.00
2023-01-28T05:19:12.213Z,10.00
2023-01-28T05:21:43.079Z,8.40
2023-01-28T05:24:22.234Z,8.30
2023-01-28T05:26:50.449Z,8.50
2023-01-28T05:29:18.669Z,8.00
2023-01-28T05:31:48.142Z,9.10
2023-01-28T05:34:16.819Z,7.50
2023-01-28T05:36:45.097Z,8.00
2023-01-28T05:39:33.849Z,8.30
2023-01-28T05:42:02.055Z,9.80
2023-01-28T05:44:30.821Z,11.30
2023-01-28T05:47:16.322Z,10.50
2023-01-28T05:49:52.952Z,9.70
2023-01-28T05:52:33.693Z,8.50
2023-01-28T05:55:02.067Z,8.60
2023-01-28T05:57:30.751Z,8.30
2023-01-28T05:59:58.953Z,9.30
2023-01-28T06:02:28.219Z,8.60
2023-01-28T06:05:01.065Z,7.90
2023-01-28T06:07:29.473Z,7.30
2023-01-28T06:09:58.924Z,7.80
2023-01-28T06:12:27.490Z,10.50
2023-01-28T06:15:52.063Z,11.20
2023-01-28T06:19:10.378Z,12.40
2023-01-28T06:21:39.333Z,11.70
2023-01-28T06:24:07.830Z,11.50
2023-01-28T06:26:36.070Z,11.20
2023-01-28T06:29:04.331Z,15.10
2023-01-28T06:31:32.472Z,14.30
2023-01-28T06:34:00.585Z,14.30
2023-01-28T06:36:28.734Z,15.20
2023-01-28T06:38:57.396Z,14.70
2023-01-28T06:41:25.554Z,13.60
2023-01-28T06:43:53.682Z,13.70
2023-01-28T06:46:21.877Z,16.40
2023-01-28T06:48:49.982Z,16.90
2023-01-28T06:51:18.045Z,18.40
2023-01-28T06:53:46.276Z,16.00
2023-01-28T06:56:14.829Z,14.70
2023-01-28T06:58:42.905Z,12.40
2023-01-28T07:01:11.129Z,12.10
2023-01-28T07:03:39.290Z,11.70
2023-01-28T07:06:07.594Z,11.60
2023-01-28T07:08:37.695Z,11.70
2023-01-28T07:11:06.047Z,17.70
2023-01-28T07:13:34.456Z,30.80
2023-01-28T07:16:04.173Z,30.30
2023-01-28T07:18:32.253Z,30.90
2023-01-28T07:21:00.354Z,26.80
2023-01-28T07:23:29.192Z,21.90
2023-01-28T07:26:04.732Z,17.90
2023-01-28T07:28:32.952Z,18.00
2023-01-28T07:31:01.179Z,15.00
2023-01-28T07:33:29.334Z,16.10
2023-01-28T07:35:57.525Z,15.20
2023-01-28T07:38:25.623Z,14.60
2023-01-28T07:40:54.246Z,14.70
2023-01-28T07:43:22.369Z,14.30
2023-01-28T07:45:51.280Z,14.30
2023-01-28T07:48:19.403Z,13.00
2023-01-28T07:50:49.588Z,13.00
2023-01-28T07:53:17.776Z,14.50
2023-01-28T07:55:46.427Z,14.10
2023-01-28T07:58:14.573Z,12.50
2023-01-28T08:00:42.777Z,11.90
2023-01-28T08:03:18.038Z,12.60
2023-01-28T08:05:49.062Z,10.70
2023-01-28T08:08:17.492Z,11.60
2023-01-28T08:10:46.633Z,10.80
2023-01-28T08:13:16.313Z,11.70
2023-01-28T08:15:44.948Z,10.80
2023-01-28T08:18:15.748Z,11.90
2023-01-28T08:20:45.566Z,10.40
2023-01-28T08:23:19.204Z,14.70
2023-01-28T08:25:48.291Z,13.90
2023-01-28T08:28:16.966Z,14.90
2023-01-28T08:30:46.042Z,17.90
2023-01-28T08:33:17.111Z,12.60
2023-01-28T08:35:45.867Z,10.60
2023-01-28T08:38:18.011Z,11.40
2023-01-28T08:40:47.752Z,13.80
2023-01-28T08:43:16.202Z,13.60
2023-01-28T08:45:44.334Z,12.90
2023-01-28T08:48:17.628Z,12.20
2023-01-28T08:50:46.126Z,15.30
2023-01-28T08:53:18.335Z,13.70
2023-01-28T08:55:47.347Z,12.80
2023-01-28T08:58:18.525Z,14.90
2023-01-28T09:00:47.786Z,13.80
2023-01-28T09:03:16.842Z,13.00
2023-01-28T09:05:45.424Z,12.70
2023-01-28T09:08:15.711Z,14.10
2023-01-28T09:10:44.231Z,12.90
2023-01-28T09:13:15.816Z,13.70
2023-01-28T09:15:44.296Z,12.70
2023-01-28T09:18:12.634Z,10.10
2023-01-28T09:20:40.958Z,10.80
2023-01-28T09:23:10.021Z,9.90
2023-01-28T09:25:38.217Z,9.80
2023-01-28T09:28:06.959Z,9.10
2023-01-28T09:30:37.295Z,7.90
2023-01-28T09:33:07.312Z,7.30
2023-01-28T09:35:35.963Z,7.20
2023-01-28T09:38:04.248Z,6.80
2023-01-28T09:40:42.295Z,6.90
2023-01-28T09:43:27.656Z,6.60
2023-01-28T09:46:02.999Z,7.10
2023-01-28T09:48:52.983Z,7.60
2023-01-28T09:51:23.712Z,7.50
2023-01-28T09:53:57.230Z,7.70
2023-01-28T09:56:31.575Z,8.00
2023-01-28T09:59:17.137Z,7.20
2023-01-28T10:02:00.030Z,7.30
2023-01-28T10:04:43.394Z,6.80
2023-01-28T10:07:37.589Z,6.60
2023-01-28T10:10:19.889Z,6.60
2023-01-28T10:13:21.997Z,6.60
2023-01-28T10:16:37.470Z,5.00
2023-01-28T10:19:30.754Z,5.40
2023-01-28T10:22:16.107Z,5.40
2023-01-28T10:24:53.735Z,4.90
2023-01-28T10:27:28.271Z,6.00
2023-01-28T10:29:59.223Z,5.80
2023-01-28T10:32:38.726Z,5.60
2023-01-28T10:35:09.643Z,5.00
2023-01-28T10:37:40.195Z,5.30
2023-01-28T10:40:17.398Z,4.60
2023-01-28T10:42:46.079Z,5.10
2023-01-28T10:45:30.458Z,5.30
2023-01-28T10:48:25.121Z,5.10
2023-01-28T10:51:05.115Z,5.40
2023-01-28T10:53:42.746Z,5.50
2023-01-28T10:56:17.501Z,5.30
2023-01-28T10:59:18.213Z,5.30
2023-01-28T11:01:53.309Z,4.90
2023-01-28T11:04:30.318Z,4.30
2023-01-28T11:07:21.217Z,4.80
2023-01-28T11:09:52.562Z,4.70
2023-01-28T11:12:30.051Z,3.50
2023-01-28T11:14:59.346Z,4.00
2023-01-28T11:17:34.886Z,3.80
2023-01-28T11:20:26.191Z,3.90
2023-01-28T11:22:55.447Z,4.00
2023-01-28T11:25:31.910Z,4.00
2023-01-28T11:28:03.209Z,4.60
2023-01-28T11:30:40.336Z,4.70
2023-01-28T11:33:17.764Z,5.00
2023-01-28T11:35:58.301Z,5.40
2023-01-28T11:38:26.632Z,5.50
2023-01-28T11:40:57.646Z,5.30
2023-01-28T11:43:29.112Z,5.00
2023-01-28T11:46:18.533Z,6.10
2023-01-28T11:49:19.272Z,6.60
2023-01-28T11:52:25.161Z,6.20
2023-01-28T11:55:18.283Z,6.30
2023-01-28T11:58:07.695Z,5.30
2023-01-28T12:00:58.025Z,5.30
2023-01-28T12:04:21.500Z,5.50
2023-01-28T12:07:17.149Z,5.90
2023-01-28T12:10:05.329Z,5.20
2023-01-28T12:13:12.203Z,5.50
2023-01-28T12:16:08.044Z,6.20
2023-01-28T12:19:23.387Z,5.70
2023-01-28T12:22:13.303Z,7.20
2023-01-28T12:25:12.593Z,5.20
2023-01-28T12:27:44.406Z,5.80
2023-01-28T12:30:29.907Z,5.50
2023-01-28T12:33:33.322Z,6.00
2023-01-28T12:36:23.303Z,5.30
2023-01-28T12:39:10.853Z,5.70
2023-01-28T12:41:49.909Z,5.60
2023-01-28T12:44:35.321Z,4.80
2023-01-28T12:47:13.346Z,4.60
2023-01-28T12:50:04.712Z,5.20
2023-01-28T12:52:47.211Z,4.40
2023-01-28T12:55:41.586Z,4.90
2023-01-28T12:58:50.461Z,4.70
2023-01-28T13:01:28.430Z,5.80
2023-01-28T13:04:08.099Z,4.70
2023-01-28T13:06:47.162Z,5.10
2023-01-28T13:09:23.678Z,5.60
2023-01-28T13:11:56.957Z,5.20
2023-01-28T13:14:31.738Z,5.40
2023-01-28T13:17:12.032Z,5.50
2023-01-28T13:19:43.041Z,5.60
2023-01-28T13:22:36.064Z,5.00
2023-01-28T13:25:30.095Z,7.00
2023-01-28T13:28:02.208Z,6.40
2023-01-28T13:30:32.078Z,7.30
2023-01-28T13:33:05.111Z,10.30
2023-01-28T13:35:37.834Z,9.50
2023-01-28T13:38:19.784Z,7.50
2023-01-28T13:40:58.134Z,6.40
2023-01-28T13:43:38.307Z,5.80
2023-01-28T13:46:12.069Z,5.70
2023-01-28T13:48:51.849Z,6.80
2023-01-28T13:51:26.141Z,6.30
2023-01-28T13:54:12.758Z,6.70
2023-01-28T13:57:02.730Z,6.70
2023-01-28T14:00:06.229Z,8.40
2023-01-28T14:03:36.672Z,9.70
2023-01-28T14:07:04.778Z,8.20
2023-01-28T14:09:48.165Z,8.30
2023-01-28T14:15:19.353Z,9.10
2023-01-28T14:17:49.977Z,8.40
2023-01-28T14:20:45.103Z,8.50
2023-01-28T14:23:22.103Z,8.60
2023-01-28T14:26:27.717Z,9.60
2023-01-28T14:29:09.069Z,10.00
2023-01-28T14:31:39.357Z,9.10
2023-01-28T14:34:10.544Z,7.00
2023-01-28T14:36:41.387Z,8.20
2023-01-28T14:39:38.291Z,8.30
2023-01-28T14:42:14.925Z,7.80
2023-01-28T14:44:45.098Z,9.00
2023-01-28T14:47:46.797Z,9.10
2023-01-28T14:50:34.487Z,7.70
2023-01-28T14:53:44.551Z,7.90
2023-01-28T14:56:55.687Z,7.80
2023-01-28T14:59:42.228Z,8.00
2023-01-28T15:02:27.619Z,8.90
2023-01-28T15:05:13.995Z,8.00
2023-01-28T15:07:49.040Z,9.00
2023-01-28T15:10:24.679Z,10.30
2023-01-28T15:13:00.942Z,8.20
2023-01-28T15:15:37.059Z,8.90
2023-01-28T15:18:21.864Z,8.60
2023-01-28T15:20:56.250Z,9.40
2023-01-28T15:23:37.886Z,8.30
2023-01-28T15:26:10.444Z,7.40
2023-01-28T15:28:40.381Z,6.50
2023-01-28T15:31:24.787Z,7.50
2023-01-28T15:34:20.756Z,7.90
2023-01-28T15:36:49.948Z,8.00
2023-01-28T15:39:22.017Z,8.70
2023-01-28T15:42:00.964Z,7.40
2023-01-28T15:44:34.959Z,9.40
2023-01-28T15:47:16.914Z,7.30
2023-01-28T15:49:48.703Z,7.20
2023-01-28T15:52:17.396Z,6.60
2023-01-28T15:54:51.200Z,7.00
2023-01-28T15:57:22.683Z,8.10
2023-01-28T15:59:53.605Z,9.20
2023-01-28T16:02:25.558Z,10.60
2023-01-28T16:05:01.306Z,12.80
2023-01-28T16:07:33.005Z,10.70
2023-01-28T16:10:04.157Z,11.10
2023-01-28T16:12:32.341Z,10.30
2023-01-28T16:15:05.866Z,9.20
2023-01-28T16:17:41.773Z,9.80
2023-01-28T16:20:21.242Z,9.70
2023-01-28T16:22:50.309Z,11.80
2023-01-28T16:25:21.383Z,11.50
2023-01-28T16:27:50.931Z,11.90
2023-01-28T16:30:19.263Z,10.50
2023-01-28T16:32:48.085Z,9.90
2023-01-28T16:35:52.056Z,9.30
2023-01-28T16:38:22.447Z,9.00
2023-01-28T16:40:53.631Z,9.20
2023-01-28T16:43:21.770Z,10.30
2023-01-28T16:45:49.910Z,12.70
2023-01-28T16:48:20.794Z,15.30
2023-01-28T16:50:49.170Z,17.00
2023-01-28T16:53:33.500Z,23.10
2023-01-28T16:56:02.549Z,16.60
2023-01-28T16:58:30.742Z,15.00
2023-01-28T17:00:59.447Z,12.80
2023-01-28T17:03:27.612Z,14.70
2023-01-28T17:05:55.786Z,14.60
2023-01-28T17:08:23.921Z,15.60
2023-01-28T17:10:55.251Z,16.00
2023-01-28T17:13:23.449Z,17.00
2023-01-28T17:15:52.848Z,15.60
2023-01-28T17:18:21.034Z,14.30
2023-01-28T17:20:49.162Z,14.90
2023-01-28T17:23:22.847Z,14.20
2023-01-28T17:25:51.047Z,13.80
2023-01-28T17:28:19.247Z,13.90
2023-01-28T17:30:47.396Z,11.90
2023-01-28T17:33:15.564Z,12.90
2023-01-28T17:35:48.133Z,12.00
2023-01-28T17:38:16.722Z,14.60
2023-01-28T17:40:44.970Z,11.30
2023-01-28T17:43:13.143Z,12.80
2023-01-28T17:45:41.414Z,14.00
2023-01-28T17:48:10.566Z,13.00
2023-01-28T17:50:40.427Z,13.00
2023-01-28T17:53:11.201Z,11.60
2023-01-28T17:55:39.715Z,10.90
2023-01-28T17:58:07.855Z,10.30
2023-01-28T18:00:35.966Z,10.70
2023-01-28T18:03:04.099Z,9.90
2023-01-28T18:05:32.219Z,9.80
2023-01-28T18:08:00.346Z,10.10
2023-01-28T18:10:28.527Z,10.20
2023-01-28T18:12:56.993Z,11.10
2023-01-28T18:15:25.530Z,10.90
2023-01-28T18:17:54.059Z,10.10
2023-01-28T18:20:22.291Z,10.80
2023-01-28T18:22:50.484Z,11.00
2023-01-28T18:25:19.407Z,10.60
2023-01-28T18:27:47.816Z,10.80
2023-01-28T18:30:16.545Z,12.40
2023-01-28T18:32:45.480Z,12.60
2023-01-28T18:35:14.205Z,13.10
2023-01-28T18:37:43.024Z,13.50
2023-01-28T18:40:12.647Z,14.00
2023-01-28T18:42:40.792Z,14.70
2023-01-28T18:45:09.389Z,14.00
2023-01-28T18:47:37.639Z,13.70
2023-01-28T18:50:06.567Z,14.00
2023-01-28T18:52:35.412Z,13.10
2023-01-28T18:55:04.181Z,12.90
2023-01-28T18:57:32.302Z,13.10
2023-01-28T19:00:00.639Z,12.50
2023-01-28T19:02:28.842Z,13.00
2023-01-28T19:04:57.209Z,12.80
2023-01-28T19:07:25.291Z,14.30
2023-01-28T19:09:53.431Z,14.10
2023-01-28T19:12:22.484Z,14.90
2023-01-28T19:14:50.711Z,16.30
2023-01-28T19:17:18.904Z,14.70
2023-01-28T19:19:47.271Z,13.90
2023-01-28T19:22:15.409Z,14.10
2023-01-28T19:24:43.788Z,14.00
2023-01-28T19:27:11.915Z,16.30
2023-01-28T19:29:40.006Z,14.80
2023-01-28T19:32:08.155Z,14.70
2023-01-28T19:34:36.264Z,13.60
2023-01-28T19:37:04.419Z,15.20
2023-01-28T19:39:32.565Z,17.00
2023-01-28T19:42:02.195Z,16.60
2023-01-28T19:44:30.690Z,19.60
2023-01-28T19:46:59.532Z,19.70
2023-01-28T19:49:29.639Z,18.60
2023-01-28T19:51:58.757Z,20.30
2023-01-28T19:54:27.055Z,18.90
2023-01-28T19:56:55.148Z,18.10
2023-01-28T19:59:23.344Z,16.90
2023-01-28T20:01:51.450Z,16.40
2023-01-28T20:04:19.609Z,16.50
2023-01-28T20:06:49.171Z,16.30
2023-01-28T20:09:19.865Z,17.20
2023-01-28T20:11:48.114Z,16.40
2023-01-28T20:14:18.076Z,16.20
2023-01-28T20:16:46.216Z,15.30
2023-01-28T20:19:18.938Z,18.10
2023-01-28T20:21:47.358Z,17.30
2023-01-28T20:24:16.044Z,14.80
2023-01-28T20:26:45.199Z,15.10
2023-01-28T20:29:18.426Z,14.60
2023-01-28T20:31:57.446Z,13.40
2023-01-28T20:34:34.170Z,14.80
2023-01-28T20:37:03.337Z,15.20
2023-01-28T20:39:31.485Z,13.90
2023-01-28T20:41:59.671Z,12.40
2023-01-28T20:44:31.938Z,12.40
2023-01-28T20:47:00.317Z,10.40
2023-01-28T20:49:29.365Z,10.90
2023-01-28T20:51:57.611Z,10.50
2023-01-28T20:54:25.889Z,12.20
2023-01-28T20:56:54.272Z,15.10
2023-01-28T20:59:24.042Z,19.20
2023-01-28T21:01:52.187Z,13.00
2023-01-28T21:04:20.306Z,12.30
2023-01-28T21:06:48.449Z,12.60
2023-01-28T21:09:16.620Z,11.80
2023-01-28T21:11:44.771Z,10.20
2023-01-28T21:14:16.880Z,11.00
2023-01-28T21:16:45.210Z,12.20
2023-01-28T21:19:13.469Z,13.10
2023-01-28T21:21:42.929Z,13.40
2023-01-28T21:24:13.958Z,11.80
2023-01-28T21:26:42.114Z,12.30
2023-01-28T21:29:10.289Z,10.70
2023-01-28T21:31:38.565Z,9.90
2023-01-28T21:34:06.719Z,12.10
2023-01-28T21:36:37.139Z,10.90
2023-01-28T21:39:05.380Z,13.20
2023-01-28T21:41:33.624Z,14.30
2023-01-28T21:44:02.113Z,12.40
2023-01-28T21:46:32.902Z,13.00
2023-01-28T21:49:03.681Z,13.10
2023-01-28T21:51:46.280Z,14.30
2023-01-28T21:54:19.580Z,12.50
2023-01-28T21:56:50.657Z,12.60
2023-01-28T21:59:29.602Z,13.70
2023-01-28T22:01:57.934Z,14.00
2023-01-28T22:04:35.677Z,15.50
2023-01-28T22:07:07.359Z,14.30
2023-01-28T22:09:35.724Z,15.70
2023-01-28T22:12:07.863Z,14.90
2023-01-28T22:14:38.399Z,14.00
2023-01-28T22:17:09.169Z,12.50
2023-01-28T22:19:38.845Z,14.60
2023-01-28T22:22:07.156Z,15.50
2023-01-28T22:24:35.411Z,15.80
2023-01-28T22:27:03.850Z,14.70
2023-01-28T22:29:31.946Z,15.10
2023-01-28T22:32:00.608Z,14.50
2023-01-28T22:34:28.722Z,13.70
2023-01-28T22:36:56.831Z,14.90
2023-01-28T22:39:25.069Z,13.50
2023-01-28T22:41:53.198Z,14.00
2023-01-28T22:44:21.336Z,13.90
2023-01-28T22:46:49.549Z,14.10
2023-01-28T22:49:17.761Z,13.80
2023-01-28T22:51:45.892Z,13.90
2023-01-28T22:54:14.977Z,14.10
2023-01-28T22:56:43.381Z,16.50
2023-01-28T22:59:12.592Z,17.10
2023-01-28T23:01:40.721Z,14.50
2023-01-28T23:04:08.922Z,13.80
2023-01-28T23:06:37.406Z,12.40
2023-01-28T23:09:05.730Z,13.00
2023-01-28T23:11:33.882Z,13.00
2023-01-28T23:14:22.857Z,14.10
2023-01-28T23:17:09.790Z,15.30
2023-01-28T23:19:56.593Z,13.80
2023-01-28T23:22:51.824Z,13.80
2023-01-28T23:25:20.416Z,14.60
2023-01-28T23:27:48.531Z,16.60
2023-01-28T23:30:18.249Z,14.10
2023-01-28T23:32:49.282Z,13.00
2023-01-28T23:35:19.189Z,11.90
2023-01-28T23:37:48.525Z,11.70
2023-01-28T23:40:17.524Z,11.60
2023-01-28T23:42:50.918Z,11.50
2023-01-28T23:47:48.311Z,12.30
2023-01-28T23:50:17.152Z,11.50
2023-01-28T23:52:45.571Z,12.10
2023-01-28T23:55:13.703Z,12.70
2023-01-28T23:57:42.209Z,13.30
